sensor_id;sensor_type;location;lat;lon;timestamp;pressure;altitude;pressure_sealevel;temperature;humidity
8047;BME280;74083;42.516;23.358;2024-03-23T00:53:51;88393.75;;;6.54;56.75
8047;BME280;74083;42.516;23.358;2024-03-23T00:56:36;88390.44;;;6.53;55.87
8047;BME280;74083;42.516;23.358;2024-03-23T00:59:21;88394.72;;;6.51;55.09
8047;BME280;74083;42.516;23.358;2024-03-23T01:02:11;88388.91;;;6.51;55.68
8047;BME280;74083;42.516;23.358;2024-03-23T01:04:56;88393.09;;;6.50;55.24
8047;BME280;74083;42.516;23.358;2024-03-23T01:07:42;88388.91;;;6.51;55.86
8047;BME280;74083;42.516;23.358;2024-03-23T01:10:29;88388.91;;;6.51;55.88
8047;BME280;74083;42.516;23.358;2024-03-23T01:13:14;88379.72;;;6.51;56.00
8047;BME280;74083;42.516;23.358;2024-03-23T01:15:59;88388.09;;;6.50;56.15
8047;BME280;74083;42.516;23.358;2024-03-23T01:18:46;88383.09;;;6.50;55.41
8047;BME280;74083;42.516;23.358;2024-03-23T01:21:30;88384.09;;;6.48;55.03
8047;BME280;74083;42.516;23.358;2024-03-23T01:24:16;88381.59;;;6.48;55.53
8047;BME280;74083;42.516;23.358;2024-03-23T01:27:03;88381.66;;;6.46;55.85
8047;BME280;74083;42.516;23.358;2024-03-23T01:29:49;88377.47;;;6.47;56.10
8047;BME280;74083;42.516;23.358;2024-03-23T01:32:33;88386.59;;;6.48;56.61
8047;BME280;74083;42.516;23.358;2024-03-23T01:35:19;88374.06;;;6.48;56.91
8047;BME280;74083;42.516;23.358;2024-03-23T01:38:04;88383.28;;;6.47;56.11
8047;BME280;74083;42.516;23.358;2024-03-23T01:40:56;88379.91;;;6.48;57.11
8047;BME280;74083;42.516;23.358;2024-03-23T01:43:43;88374.88;;;6.48;57.30
8047;BME280;74083;42.516;23.358;2024-03-23T01:46:28;88365.75;;;6.47;56.80
8047;BME280;74083;42.516;23.358;2024-03-23T01:49:13;88365.75;;;6.47;56.44
8047;BME280;74083;42.516;23.358;2024-03-23T01:51:59;88369.88;;;6.48;56.45
8047;BME280;74083;42.516;23.358;2024-03-23T01:54:44;88361.63;;;6.46;56.14
8047;BME280;74083;42.516;23.358;2024-03-23T01:57:30;88361.63;;;6.46;56.32
8047;BME280;74083;42.516;23.358;2024-03-23T02:00:16;88368.38;;;6.46;56.72
8047;BME280;74083;42.516;23.358;2024-03-23T02:03:21;88366.66;;;6.46;56.91
8047;BME280;74083;42.516;23.358;2024-03-23T02:06:06;88363.38;;;6.46;56.26
8047;BME280;74083;42.516;23.358;2024-03-23T02:08:54;88370.06;;;6.45;56.28
8047;BME280;74083;42.516;23.358;2024-03-23T02:11:39;88365.88;;;6.46;57.54
8047;BME280;74083;42.516;23.358;2024-03-23T02:14:25;88364.31;;;6.43;57.05
8047;BME280;74083;42.516;23.358;2024-03-23T02:17:11;88360.25;;;6.42;55.74
8047;BME280;74083;42.516;23.358;2024-03-23T02:19:58;88361.22;;;6.40;55.11
8047;BME280;74083;42.516;23.358;2024-03-23T02:22:42;88365.50;;;6.38;54.97
8047;BME280;74083;42.516;23.358;2024-03-23T02:25:30;88362.19;;;6.37;55.42
8047;BME280;74083;42.516;23.358;2024-03-23T02:28:14;88363.00;;;6.38;55.75
8047;BME280;74083;42.516;23.358;2024-03-23T02:31:00;88366.31;;;6.38;57.02
8047;BME280;74083;42.516;23.358;2024-03-23T02:33:46;88365.41;;;6.39;57.37
8047;BME280;74083;42.516;23.358;2024-03-23T02:36:31;88363.72;;;6.40;57.85
8047;BME280;74083;42.516;23.358;2024-03-23T02:39:17;88371.22;;;6.40;57.66
8047;BME280;74083;42.516;23.358;2024-03-23T02:42:04;88367.00;;;6.40;56.62
8047;BME280;74083;42.516;23.358;2024-03-23T02:44:50;88367.81;;;6.41;57.62
8047;BME280;74083;42.516;23.358;2024-03-23T02:47:35;88364.50;;;6.40;57.09
8047;BME280;74083;42.516;23.358;2024-03-23T02:50:20;88359.50;;;6.40;57.62
8047;BME280;74083;42.516;23.358;2024-03-23T02:53:05;88360.41;;;6.39;56.53
8047;BME280;74083;42.516;23.358;2024-03-23T02:55:50;88355.50;;;6.38;56.75
8047;BME280;74083;42.516;23.358;2024-03-23T02:58:38;88356.28;;;6.38;56.36
8047;BME280;74083;42.516;23.358;2024-03-23T03:01:22;88354.69;;;6.37;57.25
8047;BME280;74083;42.516;23.358;2024-03-23T03:04:08;88363.09;;;6.36;57.73
8047;BME280;74083;42.516;23.358;2024-03-23T03:06:53;88359.78;;;6.36;57.66
8047;BME280;74083;42.516;23.358;2024-03-23T03:09:40;88358.97;;;6.35;57.32
8047;BME280;74083;42.516;23.358;2024-03-23T03:12:24;88348.97;;;6.35;57.84
8047;BME280;74083;42.516;23.358;2024-03-23T03:15:13;88355.66;;;6.35;57.56
8047;BME280;74083;42.516;23.358;2024-03-23T03:17:57;88357.38;;;6.34;56.59
8047;BME280;74083;42.516;23.358;2024-03-23T03:20:43;88358.97;;;6.35;57.72
8047;BME280;74083;42.516;23.358;2024-03-23T03:23:28;88353.97;;;6.35;57.66
8047;BME280;74083;42.516;23.358;2024-03-23T03:26:14;88357.38;;;6.34;57.10
8047;BME280;74083;42.516;23.358;2024-03-23T03:28:59;88353.28;;;6.33;57.21
8047;BME280;74083;42.516;23.358;2024-03-23T03:31:46;88354.97;;;6.33;57.34
8047;BME280;74083;42.516;23.358;2024-03-23T03:34:31;88346.66;;;6.32;56.68
8047;BME280;74083;42.516;23.358;2024-03-23T03:37:17;88355.97;;;6.30;56.88
8047;BME280;74083;42.516;23.358;2024-03-23T03:40:01;88356.75;;;6.31;56.23
8047;BME280;74083;42.516;23.358;2024-03-23T03:42:48;88359.25;;;6.31;56.01
8047;BME280;74083;42.516;23.358;2024-03-23T03:45:33;88359.34;;;6.29;57.03
8047;BME280;74083;42.516;23.358;2024-03-23T03:48:21;88357.75;;;6.28;57.42
8047;BME280;74083;42.516;23.358;2024-03-23T03:51:07;88352.75;;;6.28;57.61
8047;BME280;74083;42.516;23.358;2024-03-23T03:53:51;88363.53;;;6.29;57.83
8047;BME280;74083;42.516;23.358;2024-03-23T03:56:36;88357.75;;;6.28;57.74
8047;BME280;74083;42.516;23.358;2024-03-23T03:59:21;88363.53;;;6.29;58.13
8047;BME280;74083;42.516;23.358;2024-03-23T04:02:07;88361.94;;;6.28;57.14
8047;BME280;74083;42.516;23.358;2024-03-23T04:04:53;88361.13;;;6.27;57.62
8047;BME280;74083;42.516;23.358;2024-03-23T04:07:40;88357.94;;;6.25;57.83
8047;BME280;74083;42.516;23.358;2024-03-23T04:10:25;88362.94;;;6.25;57.72
8047;BME280;74083;42.516;23.358;2024-03-23T04:13:10;88360.31;;;6.27;58.25
8047;BME280;74083;42.516;23.358;2024-03-23T04:15:55;88362.03;;;6.26;58.23
8047;BME280;74083;42.516;23.358;2024-03-23T04:18:41;88362.84;;;6.27;58.59
8047;BME280;74083;42.516;23.358;2024-03-23T04:21:28;88372.94;;;6.25;57.22
8047;BME280;74083;42.516;23.358;2024-03-23T04:24:14;88366.31;;;6.24;57.06
8047;BME280;74083;42.516;23.358;2024-03-23T04:26:59;88367.13;;;6.25;57.12
8047;BME280;74083;42.516;23.358;2024-03-23T04:29:47;88364.81;;;6.22;56.66
8047;BME280;74083;42.516;23.358;2024-03-23T04:32:32;88361.50;;;6.21;56.57
8047;BME280;74083;42.516;23.358;2024-03-23T04:35:18;88366.50;;;6.21;56.75
8047;BME280;74083;42.516;23.358;2024-03-23T04:38:07;88360.78;;;6.19;56.68
8047;BME280;74083;42.516;23.358;2024-03-23T04:40:56;88364.19;;;6.18;57.44
8047;BME280;74083;42.516;23.358;2024-03-23T04:43:42;88369.19;;;6.18;57.42
8047;BME280;74083;42.516;23.358;2024-03-23T04:46:28;88366.56;;;6.19;56.73
8047;BME280;74083;42.516;23.358;2024-03-23T04:49:13;88370.06;;;6.17;56.97
8047;BME280;74083;42.516;23.358;2024-03-23T04:51:59;88362.66;;;6.15;57.58
8047;BME280;74083;42.516;23.358;2024-03-23T04:54:48;88364.34;;;6.15;57.88
8047;BME280;74083;42.516;23.358;2024-03-23T04:57:34;88366.84;;;6.15;58.15
8047;BME280;74083;42.516;23.358;2024-03-23T05:00:20;88374.34;;;6.15;58.36
8047;BME280;74083;42.516;23.358;2024-03-23T05:03:05;88370.25;;;6.14;58.37
8047;BME280;74083;42.516;23.358;2024-03-23T05:05:50;88365.25;;;6.14;58.60
8047;BME280;74083;42.516;23.358;2024-03-23T05:08:35;88375.25;;;6.14;58.57
8047;BME280;74083;42.516;23.358;2024-03-23T05:11:22;88366.16;;;6.13;58.57
8047;BME280;74083;42.516;23.358;2024-03-23T05:14:07;88372.75;;;6.14;58.55
8047;BME280;74083;42.516;23.358;2024-03-23T05:16:53;88369.47;;;6.13;58.23
8047;BME280;74083;42.516;23.358;2024-03-23T05:19:37;88367.75;;;6.14;58.95
8047;BME280;74083;42.516;23.358;2024-03-23T05:22:23;88369.47;;;6.13;58.93
8047;BME280;74083;42.516;23.358;2024-03-23T05:25:09;88366.16;;;6.13;58.55
8047;BME280;74083;42.516;23.358;2024-03-23T05:27:57;88364.47;;;6.13;59.42
8047;BME280;74083;42.516;23.358;2024-03-23T05:30:42;88366.03;;;6.14;59.42
8047;BME280;74083;42.516;23.358;2024-03-23T05:33:27;88363.47;;;6.16;59.19
8047;BME280;74083;42.516;23.358;2024-03-23T05:36:12;88364.34;;;6.15;59.45
8047;BME280;74083;42.516;23.358;2024-03-23T05:38:58;88362.72;;;6.14;59.24
8047;BME280;74083;42.516;23.358;2024-03-23T05:41:44;88368.66;;;6.13;59.15
8047;BME280;74083;42.516;23.358;2024-03-23T05:44:31;88370.06;;;6.17;59.51
8047;BME280;74083;42.516;23.358;2024-03-23T05:47:15;88369.34;;;6.15;59.50
8047;BME280;74083;42.516;23.358;2024-03-23T05:50:01;88365.06;;;6.17;59.75
8047;BME280;74083;42.516;23.358;2024-03-23T05:52:46;88366.84;;;6.15;59.79
8047;BME280;74083;42.516;23.358;2024-03-23T05:55:32;88370.16;;;6.15;59.59
8047;BME280;74083;42.516;23.358;2024-03-23T05:58:17;88360.78;;;6.19;59.31
8047;BME280;74083;42.516;23.358;2024-03-23T06:01:05;88360.16;;;6.15;59.35
8047;BME280;74083;42.516;23.358;2024-03-23T06:03:50;88361.66;;;6.18;59.33
8047;BME280;74083;42.516;23.358;2024-03-23T06:06:35;88361.66;;;6.18;59.51
8047;BME280;74083;42.516;23.358;2024-03-23T06:09:19;88355.78;;;6.19;58.96
8047;BME280;74083;42.516;23.358;2024-03-23T06:12:06;88355.06;;;6.17;58.99
8047;BME280;74083;42.516;23.358;2024-03-23T06:14:51;88355.06;;;6.17;59.10
8047;BME280;74083;42.516;23.358;2024-03-23T06:17:38;88355.22;;;6.14;58.64
8047;BME280;74083;42.516;23.358;2024-03-23T06:20:23;88355.22;;;6.14;58.72
8047;BME280;74083;42.516;23.358;2024-03-23T06:23:10;88356.97;;;6.13;58.84
8047;BME280;74083;42.516;23.358;2024-03-23T06:25:56;88357.84;;;6.12;58.53
8047;BME280;74083;42.516;23.358;2024-03-23T06:28:42;88362.91;;;6.11;58.35
8047;BME280;74083;42.516;23.358;2024-03-23T06:31:27;88369.72;;;6.09;58.15
8047;BME280;74083;42.516;23.358;2024-03-23T06:34:14;88363.81;;;6.10;58.14
8047;BME280;74083;42.516;23.358;2024-03-23T06:37:00;88363.09;;;6.08;57.83
8047;BME280;74083;42.516;23.358;2024-03-23T06:39:46;88367.22;;;6.09;58.17
8047;BME280;74083;42.516;23.358;2024-03-23T06:42:32;88368.09;;;6.08;57.87
8047;BME280;74083;42.516;23.358;2024-03-23T06:45:17;88364.53;;;6.12;57.82
8047;BME280;74083;42.516;23.358;2024-03-23T06:48:07;88363.81;;;6.10;57.34
8047;BME280;74083;42.516;23.358;2024-03-23T06:50:57;88367.84;;;6.12;57.45
8047;BME280;74083;42.516;23.358;2024-03-23T06:53:43;88368.03;;;6.09;57.57
8047;BME280;74083;42.516;23.358;2024-03-23T06:56:27;88362.22;;;6.09;57.32
8047;BME280;74083;42.516;23.358;2024-03-23T06:59:13;88364.72;;;6.09;57.40
8047;BME280;74083;42.516;23.358;2024-03-23T07:01:58;88363.81;;;6.10;57.54
8047;BME280;74083;42.516;23.358;2024-03-23T07:04:43;88363.47;;;6.16;56.80
8047;BME280;74083;42.516;23.358;2024-03-23T07:07:30;88362.72;;;6.14;57.01
8047;BME280;74083;42.516;23.358;2024-03-23T07:10:15;88358.66;;;6.13;57.04
8047;BME280;74083;42.516;23.358;2024-03-23T07:12:59;88368.66;;;6.13;57.01
8047;BME280;74083;42.516;23.358;2024-03-23T07:15:51;88360.22;;;6.14;56.54
8047;BME280;74083;42.516;23.358;2024-03-23T07:18:36;88364.06;;;6.19;56.59
8047;BME280;74083;42.516;23.358;2024-03-23T07:21:22;88356.84;;;6.15;56.50
8047;BME280;74083;42.516;23.358;2024-03-23T07:24:08;88355.97;;;6.16;55.85
8047;BME280;74083;42.516;23.358;2024-03-23T07:26:54;88357.66;;;6.15;56.61
8047;BME280;74083;42.516;23.358;2024-03-23T07:29:41;88358.66;;;6.13;56.82
8047;BME280;74083;42.516;23.358;2024-03-23T07:32:27;88357.38;;;6.20;56.73
8047;BME280;74083;42.516;23.358;2024-03-23T07:35:11;88355.06;;;6.17;56.84
8047;BME280;74083;42.516;23.358;2024-03-23T07:37:57;88351.66;;;6.18;57.60
8047;BME280;74083;42.516;23.358;2024-03-23T07:40:43;88357.56;;;6.17;57.33
8047;BME280;74083;42.516;23.358;2024-03-23T07:43:28;88357.19;;;6.23;57.13
8047;BME280;74083;42.516;23.358;2024-03-23T07:46:14;88353.09;;;6.22;56.99
8047;BME280;74083;42.516;23.358;2024-03-23T07:49:00;88354.69;;;6.23;56.50
8047;BME280;74083;42.516;23.358;2024-03-23T07:51:44;88347.19;;;6.23;56.58
8047;BME280;74083;42.516;23.358;2024-03-23T07:54:30;88345.50;;;6.24;56.34
8047;BME280;74083;42.516;23.358;2024-03-23T07:57:17;88343.09;;;6.22;56.29
8047;BME280;74083;42.516;23.358;2024-03-23T08:00:02;88346.13;;;6.27;56.33
8047;BME280;74083;42.516;23.358;2024-03-23T08:02:51;88348.44;;;6.30;56.91
8047;BME280;74083;42.516;23.358;2024-03-23T08:05:35;88354.44;;;6.28;56.07
8047;BME280;74083;42.516;23.358;2024-03-23T08:08:21;88345.13;;;6.30;56.28
8047;BME280;74083;42.516;23.358;2024-03-23T08:11:06;88346.75;;;6.31;55.88
8047;BME280;74083;42.516;23.358;2024-03-23T08:13:53;88349.97;;;6.33;56.18
8047;BME280;74083;42.516;23.358;2024-03-23T08:16:38;88360.78;;;6.33;56.42
8047;BME280;74083;42.516;23.358;2024-03-23T08:19:24;88344.16;;;6.32;56.48
8047;BME280;74083;42.516;23.358;2024-03-23T08:22:09;88352.53;;;6.31;56.29
8047;BME280;74083;42.516;23.358;2024-03-23T08:24:54;88351.22;;;6.26;55.83
8047;BME280;74083;42.516;23.358;2024-03-23T08:27:39;88352.53;;;6.31;56.18
8047;BME280;74083;42.516;23.358;2024-03-23T08:30:28;88351.47;;;6.35;56.63
8047;BME280;74083;42.516;23.358;2024-03-23T08:33:13;88345.66;;;6.35;56.69
8047;BME280;74083;42.516;23.358;2024-03-23T08:35:59;88347.91;;;6.39;56.92
8047;BME280;74083;42.516;23.358;2024-03-23T08:38:46;88350.22;;;6.42;57.22
8047;BME280;74083;42.516;23.358;2024-03-23T08:41:31;88344.84;;;6.34;56.14
8047;BME280;74083;42.516;23.358;2024-03-23T08:44:16;88348.59;;;6.41;56.77
8047;BME280;74083;42.516;23.358;2024-03-23T08:47:04;88346.81;;;6.43;57.51
8047;BME280;74083;42.516;23.358;2024-03-23T08:49:49;88345.22;;;6.42;57.45
8047;BME280;74083;42.516;23.358;2024-03-23T08:52:35;88347.53;;;6.45;57.40
8047;BME280;74083;42.516;23.358;2024-03-23T08:55:19;88342.34;;;6.48;56.92
8047;BME280;74083;42.516;23.358;2024-03-23T08:58:05;88339.47;;;6.54;57.34
8047;BME280;74083;42.516;23.358;2024-03-23T09:00:52;88339.31;;;6.57;57.41
8047;BME280;74083;42.516;23.358;2024-03-23T09:03:41;88337.56;;;6.58;57.43
8047;BME280;74083;42.516;23.358;2024-03-23T09:06:26;88330.81;;;6.60;57.64
8047;BME280;74083;42.516;23.358;2024-03-23T09:09:12;88339.31;;;6.57;57.25
8047;BME280;74083;42.516;23.358;2024-03-23T09:11:56;88323.75;;;6.52;57.92
8047;BME280;74083;42.516;23.358;2024-03-23T09:14:41;88326.25;;;6.52;57.40
8047;BME280;74083;42.516;23.358;2024-03-23T09:17:26;88322.28;;;6.62;57.54
8047;BME280;74083;42.516;23.358;2024-03-23T09:20:13;88313.09;;;6.63;57.20
8047;BME280;74083;42.516;23.358;2024-03-23T09:22:57;88312.28;;;6.62;57.72
8047;BME280;74083;42.516;23.358;2024-03-23T09:25:43;88306.47;;;6.62;57.42
8047;BME280;74083;42.516;23.358;2024-03-23T09:28:27;88300.03;;;6.58;56.52
8047;BME280;74083;42.516;23.358;2024-03-23T09:31:14;88303.16;;;6.61;57.22
8047;BME280;74083;42.516;23.358;2024-03-23T09:33:59;88293.41;;;6.71;57.85
8047;BME280;74083;42.516;23.358;2024-03-23T09:36:46;88292.78;;;6.67;57.59
8047;BME280;74083;42.516;23.358;2024-03-23T09:39:32;88301.53;;;6.74;57.82
8047;BME280;74083;42.516;23.358;2024-03-23T09:42:17;88297.31;;;6.75;57.44
8047;BME280;74083;42.516;23.358;2024-03-23T09:45:05;88295.34;;;6.80;58.04
8047;BME280;74083;42.516;23.358;2024-03-23T09:47:51;88288.53;;;6.82;57.74
8047;BME280;74083;42.516;23.358;2024-03-23T09:50:37;88292.91;;;6.78;57.66
8047;BME280;74083;42.516;23.358;2024-03-23T09:53:24;88283.31;;;6.85;58.48
8047;BME280;74083;42.516;23.358;2024-03-23T09:56:10;88284.31;;;6.83;57.07
8047;BME280;74083;42.516;23.358;2024-03-23T09:59:00;88277.31;;;6.88;58.17
8047;BME280;74083;42.516;23.358;2024-03-23T10:01:46;88288.75;;;6.92;58.22
8047;BME280;74083;42.516;23.358;2024-03-23T10:04:37;88271.22;;;6.92;58.21
8047;BME280;74083;42.516;23.358;2024-03-23T10:07:23;88275.13;;;6.96;58.69
8047;BME280;74083;42.516;23.358;2024-03-23T10:10:12;88265.91;;;6.96;58.28
8047;BME280;74083;42.516;23.358;2024-03-23T10:12:57;88269.44;;;6.94;57.70
8047;BME280;74083;42.516;23.358;2024-03-23T10:15:43;88273.34;;;6.98;57.88
8047;BME280;74083;42.516;23.358;2024-03-23T10:18:27;88268.97;;;7.01;58.35
8047;BME280;74083;42.516;23.358;2024-03-23T10:21:14;88262.16;;;7.03;56.29
8047;BME280;74083;42.516;23.358;2024-03-23T10:24:07;88259.53;;;7.05;56.82
8047;BME280;74083;42.516;23.358;2024-03-23T10:26:57;88257.75;;;7.07;57.84
8047;BME280;74083;42.516;23.358;2024-03-23T10:29:42;88252.75;;;7.07;56.48
8047;BME280;74083;42.516;23.358;2024-03-23T10:32:28;88251.63;;;7.11;57.07
8047;BME280;74083;42.516;23.358;2024-03-23T10:35:17;88248.34;;;7.10;55.81
8047;BME280;74083;42.516;23.358;2024-03-23T10:38:07;88242.91;;;7.16;57.38
8047;BME280;74083;42.516;23.358;2024-03-23T10:40:53;88249.34;;;7.20;57.86
8047;BME280;74083;42.516;23.358;2024-03-23T10:43:40;88244.53;;;7.17;57.81
8047;BME280;74083;42.516;23.358;2024-03-23T10:46:27;88238.50;;;7.20;57.89
8047;BME280;74083;42.516;23.358;2024-03-23T10:49:13;88235.19;;;7.19;57.66
8047;BME280;74083;42.516;23.358;2024-03-23T10:51:58;88240.22;;;7.19;56.92
8047;BME280;74083;42.516;23.358;2024-03-23T10:54:44;88233.13;;;7.26;57.05
8047;BME280;74083;42.516;23.358;2024-03-23T10:57:36;88227.91;;;7.29;57.29
8047;BME280;74083;42.516;23.358;2024-03-23T11:00:24;88226.09;;;7.31;57.79
8047;BME280;74083;42.516;23.358;2024-03-23T11:03:30;88214.09;;;7.36;58.83
8047;BME280;74083;42.516;23.358;2024-03-23T11:06:34;88204.16;;;7.34;59.04
8047;BME280;74083;42.516;23.358;2024-03-23T11:09:39;88207.25;;;7.38;59.38
8047;BME280;74083;42.516;23.358;2024-03-23T11:12:33;88198.84;;;7.39;58.46
8047;BME280;74083;42.516;23.358;2024-03-23T11:15:19;88205.38;;;7.42;59.05
8047;BME280;74083;42.516;23.358;2024-03-23T11:18:06;88190.41;;;7.40;58.93
8047;BME280;74083;42.516;23.358;2024-03-23T11:20:53;88191.81;;;7.44;58.63
8047;BME280;74083;42.516;23.358;2024-03-23T11:23:38;88182.69;;;7.43;57.09
8047;BME280;74083;42.516;23.358;2024-03-23T11:26:23;88186.50;;;7.49;57.66
8047;BME280;74083;42.516;23.358;2024-03-23T11:29:12;88183.41;;;7.45;57.73
8047;BME280;74083;42.516;23.358;2024-03-23T11:31:58;88176.59;;;7.60;55.73
8047;BME280;74083;42.516;23.358;2024-03-23T11:34:45;88177.47;;;7.59;57.12
8047;BME280;74083;42.516;23.358;2024-03-23T11:37:30;88169.16;;;7.58;56.11
8047;BME280;74083;42.516;23.358;2024-03-23T11:40:19;88166.03;;;7.67;55.98
8047;BME280;74083;42.516;23.358;2024-03-23T11:43:06;88160.72;;;7.72;55.75
8047;BME280;74083;42.516;23.358;2024-03-23T11:45:52;88156.28;;;7.75;55.28
8047;BME280;74083;42.516;23.358;2024-03-23T11:48:38;88158.69;;;7.77;53.90
8047;BME280;74083;42.516;23.358;2024-03-23T11:51:25;88157.47;;;7.95;51.59
8047;BME280;74083;42.516;23.358;2024-03-23T11:54:10;88149.44;;;8.14;50.58
8047;BME280;74083;42.516;23.358;2024-03-23T11:56:56;88140.56;;;8.10;53.08
8047;BME280;74083;42.516;23.358;2024-03-23T11:59:42;88138.31;;;8.18;50.47
8047;BME280;74083;42.516;23.358;2024-03-23T12:02:28;88130.56;;;8.33;50.14
8047;BME280;74083;42.516;23.358;2024-03-23T12:05:16;88121.00;;;8.38;50.53
8047;BME280;74083;42.516;23.358;2024-03-23T12:08:20;88126.25;;;8.23;52.04
8047;BME280;74083;42.516;23.358;2024-03-23T12:11:06;88113.22;;;8.18;52.20
8047;BME280;74083;42.516;23.358;2024-03-23T12:13:59;88109.59;;;8.22;52.16
8047;BME280;74083;42.516;23.358;2024-03-23T12:16:44;88113.22;;;8.18;53.19
8047;BME280;74083;42.516;23.358;2024-03-23T12:19:30;88113.84;;;8.45;50.40
8047;BME280;74083;42.516;23.358;2024-03-23T12:22:14;88113.50;;;8.50;50.48
8047;BME280;74083;42.516;23.358;2024-03-23T12:25:01;88106.31;;;8.45;51.50
8047;BME280;74083;42.516;23.358;2024-03-23T12:27:46;88101.56;;;8.64;48.51
8047;BME280;74083;42.516;23.358;2024-03-23T12:30:33;88099.28;;;8.61;49.47
8047;BME280;74083;42.516;23.358;2024-03-23T12:33:17;88096.75;;;8.61;49.84
8047;BME280;74083;42.516;23.358;2024-03-23T12:36:04;88095.16;;;8.60;50.42
8047;BME280;74083;42.516;23.358;2024-03-23T12:38:49;88094.47;;;8.58;50.45
8047;BME280;74083;42.516;23.358;2024-03-23T12:41:36;88096.22;;;8.69;50.30
8047;BME280;74083;42.516;23.358;2024-03-23T12:44:21;88090.84;;;8.73;50.24
8047;BME280;74083;42.516;23.358;2024-03-23T12:47:06;88088.91;;;8.66;51.22
8047;BME280;74083;42.516;23.358;2024-03-23T12:49:51;88080.81;;;8.73;50.85
8047;BME280;74083;42.516;23.358;2024-03-23T12:52:37;88081.97;;;8.80;49.84
8047;BME280;74083;42.516;23.358;2024-03-23T12:55:22;88071.56;;;8.74;51.46
8047;BME280;74083;42.516;23.358;2024-03-23T12:58:09;88071.50;;;8.86;48.26
8047;BME280;74083;42.516;23.358;2024-03-23T13:00:53;88074.53;;;8.79;49.82
8047;BME280;74083;42.516;23.358;2024-03-23T13:03:38;88071.50;;;8.86;49.41
8047;BME280;74083;42.516;23.358;2024-03-23T13:06:25;88068.06;;;8.87;49.58
8047;BME280;74083;42.516;23.358;2024-03-23T13:09:11;88063.25;;;8.95;47.24
8047;BME280;74083;42.516;23.358;2024-03-23T13:11:56;88053.41;;;8.81;49.35
8047;BME280;74083;42.516;23.358;2024-03-23T13:14:43;88054.44;;;8.79;49.86
8047;BME280;74083;42.516;23.358;2024-03-23T13:17:27;88049.88;;;8.84;48.03
8047;BME280;74083;42.516;23.358;2024-03-23T13:20:14;88048.41;;;8.81;48.87
8047;BME280;74083;42.516;23.358;2024-03-23T13:22:58;88049.22;;;8.82;48.79
8047;BME280;74083;42.516;23.358;2024-03-23T13:25:50;88050.69;;;8.95;47.33
8047;BME280;74083;42.516;23.358;2024-03-23T13:28:34;88053.41;;;8.81;49.53
8047;BME280;74083;42.516;23.358;2024-03-23T13:31:22;88047.59;;;8.81;49.78
8047;BME280;74083;42.516;23.358;2024-03-23T13:34:07;88039.72;;;8.74;49.50
8047;BME280;74083;42.516;23.358;2024-03-23T13:36:53;88035.84;;;8.70;49.75
8047;BME280;74083;42.516;23.358;2024-03-23T13:39:38;88039.03;;;8.72;48.93
8047;BME280;74083;42.516;23.358;2024-03-23T13:42:26;88044.03;;;8.72;49.29
8047;BME280;74083;42.516;23.358;2024-03-23T13:45:11;88039.72;;;8.74;50.05
8047;BME280;74083;42.516;23.358;2024-03-23T13:47:59;88036.19;;;8.77;50.56
8047;BME280;74083;42.516;23.358;2024-03-23T13:50:43;88027.50;;;8.70;50.78
8047;BME280;74083;42.516;23.358;2024-03-23T13:53:31;88026.00;;;8.67;49.85
8047;BME280;74083;42.516;23.358;2024-03-23T13:56:17;88028.75;;;8.75;50.37
8047;BME280;74083;42.516;23.358;2024-03-23T13:59:02;88021.44;;;8.72;49.97
8047;BME280;74083;42.516;23.358;2024-03-23T14:01:47;88027.19;;;8.74;49.94
8047;BME280;74083;42.516;23.358;2024-03-23T14:04:35;88022.47;;;8.70;48.69
8047;BME280;74083;42.516;23.358;2024-03-23T14:07:19;88017.22;;;8.73;49.63
8047;BME280;74083;42.516;23.358;2024-03-23T14:10:06;88013.56;;;8.66;48.29
8047;BME280;74083;42.516;23.358;2024-03-23T14:12:51;88017.56;;;8.68;49.46
8047;BME280;74083;42.516;23.358;2024-03-23T14:15:36;88013.91;;;8.72;49.79
8047;BME280;74083;42.516;23.358;2024-03-23T14:18:22;88013.69;;;8.75;49.80
8047;BME280;74083;42.516;23.358;2024-03-23T14:21:09;88016.41;;;8.72;49.83
8047;BME280;74083;42.516;23.358;2024-03-23T14:23:54;88007.84;;;8.75;50.22
8047;BME280;74083;42.516;23.358;2024-03-23T14:26:40;88005.59;;;8.72;49.29
8047;BME280;74083;42.516;23.358;2024-03-23T14:29:25;88008.13;;;8.72;49.71
8047;BME280;74083;42.516;23.358;2024-03-23T14:32:11;88004.66;;;8.73;50.62
8047;BME280;74083;42.516;23.358;2024-03-23T14:34:57;88006.38;;;8.72;50.53
8047;BME280;74083;42.516;23.358;2024-03-23T14:37:43;88004.09;;;8.69;50.23
8047;BME280;74083;42.516;23.358;2024-03-23T14:40:31;88001.72;;;9.88;58.74
8047;BME280;74083;42.516;23.358;2024-03-23T14:43:15;87995.38;;;10.37;53.82
8047;BME280;74083;42.516;23.358;2024-03-23T14:46:08;87991.66;;;9.88;47.74
8047;BME280;74083;42.516;23.358;2024-03-23T14:48:53;87991.56;;;10.63;51.14
8047;BME280;74083;42.516;23.358;2024-03-23T14:51:39;87989.88;;;10.94;50.20
8047;BME280;74083;42.516;23.358;2024-03-23T14:54:25;87996.81;;;10.71;48.14
8047;BME280;74083;42.516;23.358;2024-03-23T14:57:16;87989.97;;;10.09;45.99
8047;BME280;74083;42.516;23.358;2024-03-23T15:00:04;87986.94;;;9.52;47.40
8047;BME280;74083;42.516;23.358;2024-03-23T15:02:51;87989.50;;;9.30;49.48
8047;BME280;74083;42.516;23.358;2024-03-23T15:05:36;87985.81;;;9.34;48.53
8047;BME280;74083;42.516;23.358;2024-03-23T15:08:21;87988.69;;;9.07;49.53
8047;BME280;74083;42.516;23.358;2024-03-23T15:11:08;87984.03;;;8.91;49.89
8047;BME280;74083;42.516;23.358;2024-03-23T15:13:54;87980.72;;;8.91;48.79
8047;BME280;74083;42.516;23.358;2024-03-23T15:16:39;87979.81;;;9.57;59.66
8047;BME280;74083;42.516;23.358;2024-03-23T15:19:26;87975.13;;;10.38;57.55
8047;BME280;74083;42.516;23.358;2024-03-23T15:22:11;87966.91;;;10.87;59.27
8047;BME280;74083;42.516;23.358;2024-03-23T15:24:57;87971.78;;;10.58;53.15
8047;BME280;74083;42.516;23.358;2024-03-23T15:27:43;87963.38;;;10.28;49.47
8047;BME280;74083;42.516;23.358;2024-03-23T15:30:29;87970.38;;;9.81;47.33
8047;BME280;74083;42.516;23.358;2024-03-23T15:33:14;87964.53;;;10.24;49.02
8047;BME280;74083;42.516;23.358;2024-03-23T15:36:00;87963.56;;;10.04;49.46
8047;BME280;74083;42.516;23.358;2024-03-23T15:38:45;87963.03;;;9.89;48.10
8047;BME280;74083;42.516;23.358;2024-03-23T15:41:32;87970.47;;;9.59;47.17
8047;BME280;74083;42.516;23.358;2024-03-23T15:44:21;87959.63;;;9.47;47.26